sensor_id;sensor_type;location;lat;lon;timestamp;pressure;altitude;pressure_sealevel;temperature;humidity
43838;BME280;29493;46.516;6.638;2022-07-04T00:00:20;96152.13;;;23.02;100.00
43838;BME280;29493;46.516;6.638;2022-07-04T00:03:01;96172.72;;;22.97;100.00
43838;BME280;29493;46.516;6.638;2022-07-04T00:05:27;96160.19;;;22.90;100.00
43838;BME280;29493;46.516;6.638;2022-07-04T00:07:53;96164.09;;;22.79;100.00
43838;BME280;29493;46.516;6.638;2022-07-04T00:10:19;96162.78;;;22.73;100.00
43838;BME280;29493;46.516;6.638;2022-07-04T00:12:49;96164.84;;;22.65;100.00
43838;BME280;29493;46.516;6.638;2022-07-04T00:15:15;96155.69;;;22.64;100.00
43838;BME280;29493;46.516;6.638;2022-07-04T00:17:41;96147.81;;;22.62;100.00
43838;BME280;29493;46.516;6.638;2022-07-04T00:20:08;96143.50;;;22.61;100.00
43838;BME280;29493;46.516;6.638;2022-07-04T00:22:35;96144.06;;;22.60;100.00
43838;BME280;29493;46.516;6.638;2022-07-04T00:25:00;96143.88;;;22.58;100.00
43838;BME280;29493;46.516;6.638;2022-07-04T00:27:27;96144.28;;;22.54;100.00
43838;BME280;29493;46.516;6.638;2022-07-04T00:29:52;96155.88;;;22.51;100.00
43838;BME280;29493;46.516;6.638;2022-07-04T00:32:18;96155.13;;;22.50;100.00
43838;BME280;29493;46.516;6.638;2022-07-04T00:34:44;96160.34;;;22.46;100.00
43838;BME280;29493;46.516;6.638;2022-07-04T00:37:10;96174.56;;;22.41;100.00
43838;BME280;29493;46.516;6.638;2022-07-04T00:39:36;96187.28;;;22.42;100.00
43838;BME280;29493;46.516;6.638;2022-07-04T00:42:02;96174.94;;;22.37;100.00
43838;BME280;29493;46.516;6.638;2022-07-04T00:44:28;96175.50;;;22.36;100.00
43838;BME280;29493;46.516;6.638;2022-07-04T00:46:53;96187.09;;;22.32;100.00
43838;BME280;29493;46.516;6.638;2022-07-04T00:49:19;96195.13;;;22.28;100.00
43838;BME280;29493;46.516;6.638;2022-07-04T00:51:45;96194.94;;;22.26;100.00
43838;BME280;29493;46.516;6.638;2022-07-04T00:54:13;96200.53;;;22.18;100.00
43838;BME280;29493;46.516;6.638;2022-07-04T00:56:42;96210.44;;;22.12;100.00
43838;BME280;29493;46.516;6.638;2022-07-04T00:59:08;96221.22;;;22.00;100.00
43838;BME280;29493;46.516;6.638;2022-07-04T01:01:35;96232.03;;;21.88;100.00
43838;BME280;29493;46.516;6.638;2022-07-04T01:04:02;96231.59;;;21.77;100.00
43838;BME280;29493;46.516;6.638;2022-07-04T01:06:28;96219.44;;;21.74;100.00
43838;BME280;29493;46.516;6.638;2022-07-04T01:08:54;96210.06;;;21.72;100.00
43838;BME280;29493;46.516;6.638;2022-07-04T01:11:20;96231.75;;;21.71;100.00
43838;BME280;29493;46.516;6.638;2022-07-04T01:13:47;96241.28;;;21.68;100.00
43838;BME280;29493;46.516;6.638;2022-07-04T01:16:13;96240.31;;;21.65;100.00
43838;BME280;29493;46.516;6.638;2022-07-04T01:18:39;96244.22;;;21.62;100.00
43838;BME280;29493;46.516;6.638;2022-07-04T01:21:05;96231.53;;;21.61;100.00
43838;BME280;29493;46.516;6.638;2022-07-04T01:23:31;96229.28;;;21.60;100.00
43838;BME280;29493;46.516;6.638;2022-07-04T01:25:58;96216.56;;;21.59;100.00
43838;BME280;29493;46.516;6.638;2022-07-04T01:28:25;96214.66;;;21.54;100.00
43838;BME280;29493;46.516;6.638;2022-07-04T01:30:51;96220.84;;;21.52;100.00
43838;BME280;29493;46.516;6.638;2022-07-04T01:33:17;96216.34;;;21.49;100.00
43838;BME280;29493;46.516;6.638;2022-07-04T01:35:44;96217.44;;;21.46;100.00
43838;BME280;29493;46.516;6.638;2022-07-04T01:38:10;96215.00;;;21.43;100.00
43838;BME280;29493;46.516;6.638;2022-07-04T01:40:36;96214.78;;;21.41;100.00
43838;BME280;29493;46.516;6.638;2022-07-04T01:43:02;96211.03;;;21.38;100.00
43838;BME280;29493;46.516;6.638;2022-07-04T01:45:29;96206.38;;;21.41;100.00
43838;BME280;29493;46.516;6.638;2022-07-04T01:47:55;96195.94;;;21.41;100.00
43838;BME280;29493;46.516;6.638;2022-07-04T01:50:22;96196.50;;;21.40;100.00
43838;BME280;29493;46.516;6.638;2022-07-04T01:52:47;96185.47;;;21.42;100.00
43838;BME280;29493;46.516;6.638;2022-07-04T01:55:14;96190.53;;;21.43;100.00
43838;BME280;29493;46.516;6.638;2022-07-04T01:57:39;96194.44;;;21.40;100.00
43838;BME280;29493;46.516;6.638;2022-07-04T02:00:07;96188.09;;;21.40;100.00
43838;BME280;29493;46.516;6.638;2022-07-04T02:02:52;96193.50;;;21.38;100.00
43838;BME280;29493;46.516;6.638;2022-07-04T02:05:18;96177.22;;;21.36;100.00
43838;BME280;29493;46.516;6.638;2022-07-04T02:07:44;96165.28;;;21.35;100.00
43838;BME280;29493;46.516;6.638;2022-07-04T02:10:10;96160.22;;;21.34;100.00
43838;BME280;29493;46.516;6.638;2022-07-04T02:12:37;96153.31;;;21.35;100.00
43838;BME280;29493;46.516;6.638;2022-07-04T02:15:21;96156.47;;;21.31;100.00
43838;BME280;29493;46.516;6.638;2022-07-04T02:17:47;96170.84;;;21.28;100.00
43838;BME280;29493;46.516;6.638;2022-07-04T02:20:13;96168.59;;;21.26;100.00
43838;BME280;29493;46.516;6.638;2022-07-04T02:22:39;96161.88;;;21.29;100.00
43838;BME280;29493;46.516;6.638;2022-07-04T02:25:05;96158.13;;;21.27;100.00
43838;BME280;29493;46.516;6.638;2022-07-04T02:27:31;96158.50;;;21.23;100.00
43838;BME280;29493;46.516;6.638;2022-07-04T02:29:57;96160.31;;;21.21;100.00
43838;BME280;29493;46.516;6.638;2022-07-04T02:32:23;96177.94;;;21.00;100.00
43838;BME280;29493;46.516;6.638;2022-07-04T02:34:49;96213.78;;;21.02;100.00
43838;BME280;29493;46.516;6.638;2022-07-04T02:37:14;96237.28;;;20.99;100.00
43838;BME280;29493;46.516;6.638;2022-07-04T02:39:40;96213.94;;;20.96;100.00
43838;BME280;29493;46.516;6.638;2022-07-04T02:42:06;96160.00;;;20.96;100.00
43838;BME280;29493;46.516;6.638;2022-07-04T02:44:32;96164.81;;;20.88;100.00
43838;BME280;29493;46.516;6.638;2022-07-04T02:46:57;96181.47;;;20.72;100.00
43838;BME280;29493;46.516;6.638;2022-07-04T02:49:23;96189.19;;;20.59;100.00
43838;BME280;29493;46.516;6.638;2022-07-04T02:52:04;96200.13;;;20.49;100.00
43838;BME280;29493;46.516;6.638;2022-07-04T02:54:30;96224.59;;;20.35;100.00
43838;BME280;29493;46.516;6.638;2022-07-04T02:56:56;96242.31;;;20.17;100.00
43838;BME280;29493;46.516;6.638;2022-07-04T02:59:21;96241.38;;;20.01;100.00
43838;BME280;29493;46.516;6.638;2022-07-04T03:01:47;96236.03;;;19.90;100.00
43838;BME280;29493;46.516;6.638;2022-07-04T03:04:12;96230.16;;;19.81;100.00
43838;BME280;29493;46.516;6.638;2022-07-04T03:06:38;96223.91;;;19.74;100.00
43838;BME280;29493;46.516;6.638;2022-07-04T03:09:06;96213.59;;;19.69;100.00
43838;BME280;29493;46.516;6.638;2022-07-04T03:11:32;96199.97;;;19.66;100.00
43838;BME280;29493;46.516;6.638;2022-07-04T03:13:58;96199.97;;;19.66;100.00
43838;BME280;29493;46.516;6.638;2022-07-04T03:16:24;96176.88;;;19.65;100.00
43838;BME280;29493;46.516;6.638;2022-07-04T03:18:49;96181.50;;;19.63;100.00
43838;BME280;29493;46.516;6.638;2022-07-04T03:21:15;96180.00;;;19.62;100.00
43838;BME280;29493;46.516;6.638;2022-07-04T03:23:41;96171.06;;;19.63;100.00
43838;BME280;29493;46.516;6.638;2022-07-04T03:26:06;96171.81;;;19.51;100.00
43838;BME280;29493;46.516;6.638;2022-07-04T03:28:32;96161.09;;;19.41;100.00
43838;BME280;29493;46.516;6.638;2022-07-04T03:30:58;96171.22;;;19.31;100.00
43838;BME280;29493;46.516;6.638;2022-07-04T03:33:24;96179.16;;;19.27;100.00
43838;BME280;29493;46.516;6.638;2022-07-04T03:35:50;96184.75;;;19.27;100.00
43838;BME280;29493;46.516;6.638;2022-07-04T03:38:16;96193.88;;;19.28;100.00
43838;BME280;29493;46.516;6.638;2022-07-04T03:40:41;96211.91;;;19.27;100.00
43838;BME280;29493;46.516;6.638;2022-07-04T03:43:07;96222.00;;;19.30;100.00
43838;BME280;29493;46.516;6.638;2022-07-04T03:45:33;96220.72;;;19.31;100.00
43838;BME280;29493;46.516;6.638;2022-07-04T03:47:59;96224.47;;;19.33;100.00
43838;BME280;29493;46.516;6.638;2022-07-04T03:50:24;96228.03;;;19.34;100.00
43838;BME280;29493;46.516;6.638;2022-07-04T03:52:50;96219.53;;;19.39;100.00
43838;BME280;29493;46.516;6.638;2022-07-04T03:55:17;96212.66;;;19.40;100.00
43838;BME280;29493;46.516;6.638;2022-07-04T03:57:42;96228.13;;;19.41;100.00
43838;BME280;29493;46.516;6.638;2022-07-04T04:00:08;96250.34;;;19.47;100.00
43838;BME280;29493;46.516;6.638;2022-07-04T04:02:36;96245.31;;;19.45;100.00
43838;BME280;29493;46.516;6.638;2022-07-04T04:05:03;96231.47;;;19.40;100.00
43838;BME280;29493;46.516;6.638;2022-07-04T04:07:47;96245.22;;;19.25;100.00
43838;BME280;29493;46.516;6.638;2022-07-04T04:10:13;96251.97;;;19.16;100.00
43838;BME280;29493;46.516;6.638;2022-07-04T04:12:38;96256.91;;;19.10;100.00
43838;BME280;29493;46.516;6.638;2022-07-04T04:15:05;96258.53;;;19.05;100.00
43838;BME280;29493;46.516;6.638;2022-07-04T04:17:30;96252.94;;;19.05;100.00
43838;BME280;29493;46.516;6.638;2022-07-04T04:19:56;96259.81;;;19.04;100.00
43838;BME280;29493;46.516;6.638;2022-07-04T04:22:21;96267.66;;;19.06;100.00
43838;BME280;29493;46.516;6.638;2022-07-04T04:24:47;96275.28;;;19.05;100.00
43838;BME280;29493;46.516;6.638;2022-07-04T04:27:13;96278.06;;;19.05;100.00
43838;BME280;29493;46.516;6.638;2022-07-04T04:29:38;96277.63;;;19.01;100.00
43838;BME280;29493;46.516;6.638;2022-07-04T04:32:04;96274.41;;;18.97;100.00
43838;BME280;29493;46.516;6.638;2022-07-04T04:34:30;96270.63;;;18.95;100.00
43838;BME280;29493;46.516;6.638;2022-07-04T04:36:56;96261.50;;;18.94;100.00
43838;BME280;29493;46.516;6.638;2022-07-04T04:39:22;96239.94;;;18.95;100.00
43838;BME280;29493;46.516;6.638;2022-07-04T04:41:47;96241.44;;;18.96;100.00
43838;BME280;29493;46.516;6.638;2022-07-04T04:44:13;96252.06;;;18.97;100.00
43838;BME280;29493;46.516;6.638;2022-07-04T04:46:39;96245.94;;;18.99;100.00
43838;BME280;29493;46.516;6.638;2022-07-04T04:49:04;96253.25;;;19.02;100.00
43838;BME280;29493;46.516;6.638;2022-07-04T04:51:30;96245.84;;;19.04;100.00
43838;BME280;29493;46.516;6.638;2022-07-04T04:53:56;96243.59;;;19.03;100.00
43838;BME280;29493;46.516;6.638;2022-07-04T04:56:21;96242.31;;;19.04;100.00
43838;BME280;29493;46.516;6.638;2022-07-04T04:58:47;96242.00;;;19.07;100.00
43838;BME280;29493;46.516;6.638;2022-07-04T05:01:13;96233.81;;;19.09;100.00
43838;BME280;29493;46.516;6.638;2022-07-04T05:03:38;96236.84;;;19.11;100.00
43838;BME280;29493;46.516;6.638;2022-07-04T05:06:04;96216.00;;;19.12;100.00
43838;BME280;29493;46.516;6.638;2022-07-04T05:08:30;96220.50;;;19.16;100.00
43838;BME280;29493;46.516;6.638;2022-07-04T05:10:55;96225.56;;;19.17;100.00
43838;BME280;29493;46.516;6.638;2022-07-04T05:13:21;96223.75;;;19.20;100.00
43838;BME280;29493;46.516;6.638;2022-07-04T05:15:47;96223.19;;;19.21;100.00
43838;BME280;29493;46.516;6.638;2022-07-04T05:18:13;96225.66;;;19.25;100.00
43838;BME280;29493;46.516;6.638;2022-07-04T05:20:39;96231.69;;;19.29;100.00
43838;BME280;29493;46.516;6.638;2022-07-04T05:23:05;96227.81;;;19.32;100.00
43838;BME280;29493;46.516;6.638;2022-07-04T05:25:31;96226.72;;;19.35;100.00
43838;BME280;29493;46.516;6.638;2022-07-04T05:27:58;96228.66;;;19.40;100.00
43838;BME280;29493;46.516;6.638;2022-07-04T05:30:25;96232.63;;;19.44;100.00
43838;BME280;29493;46.516;6.638;2022-07-04T05:32:51;96242.94;;;19.50;100.00
43838;BME280;29493;46.516;6.638;2022-07-04T05:35:16;96242.41;;;19.51;100.00
43838;BME280;29493;46.516;6.638;2022-07-04T05:37:43;96237.56;;;19.52;100.00
43838;BME280;29493;46.516;6.638;2022-07-04T05:40:09;96240.38;;;19.52;100.00
43838;BME280;29493;46.516;6.638;2022-07-04T05:42:35;96248.53;;;19.50;100.00
43838;BME280;29493;46.516;6.638;2022-07-04T05:45:01;96243.69;;;19.50;100.00
43838;BME280;29493;46.516;6.638;2022-07-04T05:47:27;96233.50;;;19.53;100.00
43838;BME280;29493;46.516;6.638;2022-07-04T05:49:53;96227.94;;;19.53;100.00
43838;BME280;29493;46.516;6.638;2022-07-04T05:52:19;96221.81;;;19.54;100.00
43838;BME280;29493;46.516;6.638;2022-07-04T05:54:45;96211.91;;;19.53;100.00
43838;BME280;29493;46.516;6.638;2022-07-04T05:57:11;96214.38;;;19.57;100.00
43838;BME280;29493;46.516;6.638;2022-07-04T05:59:36;96215.34;;;19.59;100.00
43838;BME280;29493;46.516;6.638;2022-07-04T06:02:03;96210.94;;;19.64;100.00
43838;BME280;29493;46.516;6.638;2022-07-04T06:04:29;96211.34;;;19.68;100.00
43838;BME280;29493;46.516;6.638;2022-07-04T06:06:55;96209.19;;;19.74;100.00
43838;BME280;29493;46.516;6.638;2022-07-04T06:09:21;96211.88;;;19.80;100.00
43838;BME280;29493;46.516;6.638;2022-07-04T06:11:47;96216.59;;;19.85;100.00
43838;BME280;29493;46.516;6.638;2022-07-04T06:14:13;96216.47;;;19.90;100.00
43838;BME280;29493;46.516;6.638;2022-07-04T06:16:39;96230.75;;;20.00;100.00
43838;BME280;29493;46.516;6.638;2022-07-04T06:19:04;96229.47;;;20.01;100.00
43838;BME280;29493;46.516;6.638;2022-07-04T06:21:30;96229.66;;;20.03;100.00
43838;BME280;29493;46.516;6.638;2022-07-04T06:23:56;96237.50;;;20.04;100.00
43838;BME280;29493;46.516;6.638;2022-07-04T06:26:24;96243.63;;;20.03;100.00
43838;BME280;29493;46.516;6.638;2022-07-04T06:28:50;96243.84;;;20.05;100.00
43838;BME280;29493;46.516;6.638;2022-07-04T06:31:16;96245.69;;;20.02;100.00
43838;BME280;29493;46.516;6.638;2022-07-04T06:33:42;96241.38;;;20.01;100.00
43838;BME280;29493;46.516;6.638;2022-07-04T06:36:27;96249.97;;;20.03;100.00
43838;BME280;29493;46.516;6.638;2022-07-04T06:38:53;96247.41;;;20.05;100.00
43838;BME280;29493;46.516;6.638;2022-07-04T06:41:18;96240.84;;;20.03;100.00
43838;BME280;29493;46.516;6.638;2022-07-04T06:43:44;96234.16;;;20.06;100.00
43838;BME280;29493;46.516;6.638;2022-07-04T06:46:10;96237.78;;;20.14;100.00
43838;BME280;29493;46.516;6.638;2022-07-04T06:48:35;96239.38;;;20.23;100.00
43838;BME280;29493;46.516;6.638;2022-07-04T06:51:02;96241.50;;;20.30;100.00
43838;BME280;29493;46.516;6.638;2022-07-04T06:53:27;96232.91;;;20.28;100.00
43838;BME280;29493;46.516;6.638;2022-07-04T06:55:53;96224.88;;;20.45;100.00
43838;BME280;29493;46.516;6.638;2022-07-04T06:58:18;96223.59;;;20.46;100.00
43838;BME280;29493;46.516;6.638;2022-07-04T07:00:44;96219.09;;;20.43;100.00
43838;BME280;29493;46.516;6.638;2022-07-04T07:03:10;96215.66;;;20.37;100.00
43838;BME280;29493;46.516;6.638;2022-07-04T07:05:36;96214.69;;;20.34;100.00
43838;BME280;29493;46.516;6.638;2022-07-04T07:08:04;96205.75;;;20.36;100.00
43838;BME280;29493;46.516;6.638;2022-07-04T07:10:30;96197.47;;;20.44;100.00
43838;BME280;29493;46.516;6.638;2022-07-04T07:12:58;96201.22;;;20.46;100.00
43838;BME280;29493;46.516;6.638;2022-07-04T07:15:24;96195.28;;;20.50;100.00
43838;BME280;29493;46.516;6.638;2022-07-04T07:17:50;96202.44;;;20.58;100.00
43838;BME280;29493;46.516;6.638;2022-07-04T07:20:16;96196.50;;;20.62;100.00
43838;BME280;29493;46.516;6.638;2022-07-04T07:22:42;96187.75;;;20.65;100.00
43838;BME280;29493;46.516;6.638;2022-07-04T07:25:09;96196.00;;;20.71;100.00
43838;BME280;29493;46.516;6.638;2022-07-04T07:27:35;96198.47;;;20.75;100.00
43838;BME280;29493;46.516;6.638;2022-07-04T07:30:02;96193.34;;;20.86;100.00
43838;BME280;29493;46.516;6.638;2022-07-04T07:32:28;96191.16;;;20.92;100.00
43838;BME280;29493;46.516;6.638;2022-07-04T07:34:54;96192.44;;;20.91;100.00
43838;BME280;29493;46.516;6.638;2022-07-04T07:37:20;96195.09;;;20.97;100.00
43838;BME280;29493;46.516;6.638;2022-07-04T07:39:48;96194.16;;;20.94;100.00
43838;BME280;29493;46.516;6.638;2022-07-04T07:42:14;96183.50;;;20.93;100.00
43838;BME280;29493;46.516;6.638;2022-07-04T07:44:40;96187.59;;;20.92;100.00
43838;BME280;29493;46.516;6.638;2022-07-04T07:47:06;96190.41;;;20.92;100.00
43838;BME280;29493;46.516;6.638;2022-07-04T07:49:32;96188.53;;;20.94;100.00
43838;BME280;29493;46.516;6.638;2022-07-04T07:51:58;96190.44;;;20.99;100.00
43838;BME280;29493;46.516;6.638;2022-07-04T07:54:24;96192.00;;;21.08;100.00
43838;BME280;29493;46.516;6.638;2022-07-04T07:59:16;96187.28;;;21.31;100.00
43838;BME280;29493;46.516;6.638;2022-07-04T08:01:42;96183.41;;;21.42;100.00
43838;BME280;29493;46.516;6.638;2022-07-04T08:04:07;96187.75;;;21.51;100.00
43838;BME280;29493;46.516;6.638;2022-07-04T08:06:52;96189.09;;;21.57;100.00
43838;BME280;29493;46.516;6.638;2022-07-04T08:09:17;96185.75;;;21.66;100.00
43838;BME280;29493;46.516;6.638;2022-07-04T08:11:43;96186.72;;;21.69;100.00
43838;BME280;29493;46.516;6.638;2022-07-04T08:14:09;96180.22;;;21.82;100.00
43838;BME280;29493;46.516;6.638;2022-07-04T08:16:34;96185.88;;;21.89;100.00
43838;BME280;29493;46.516;6.638;2022-07-04T08:19:01;96182.69;;;21.93;100.00
43838;BME280;29493;46.516;6.638;2022-07-04T08:21:27;96185.19;;;22.04;100.00
43838;BME280;29493;46.516;6.638;2022-07-04T08:23:53;96172.88;;;22.22;100.00
43838;BME280;29493;46.516;6.638;2022-07-04T08:26:19;96183.53;;;22.32;100.00
43838;BME280;29493;46.516;6.638;2022-07-04T08:28:45;96177.56;;;22.35;100.00
43838;BME280;29493;46.516;6.638;2022-07-04T08:31:11;96173.81;;;22.48;100.00
43838;BME280;29493;46.516;6.638;2022-07-04T08:33:36;96177.94;;;22.54;100.00
43838;BME280;29493;46.516;6.638;2022-07-04T08:36:03;96168.03;;;22.61;100.00
43838;BME280;29493;46.516;6.638;2022-07-04T08:38:29;96154.75;;;22.61;100.00
43838;BME280;29493;46.516;6.638;2022-07-04T08:40:58;96162.41;;;22.76;100.00
43838;BME280;29493;46.516;6.638;2022-07-04T08:43:25;96158.88;;;22.83;100.00
43838;BME280;29493;46.516;6.638;2022-07-04T08:45:54;96162.63;;;22.93;100.00
43838;BME280;29493;46.516;6.638;2022-07-04T08:48:23;96160.91;;;23.06;100.00
43838;BME280;29493;46.516;6.638;2022-07-04T08:50:54;96157.16;;;23.11;100.00
43838;BME280;29493;46.516;6.638;2022-07-04T08:53:21;96151.34;;;23.16;100.00
43838;BME280;29493;46.516;6.638;2022-07-04T08:55:48;96155.09;;;23.11;100.00
43838;BME280;29493;46.516;6.638;2022-07-04T08:58:33;96154.34;;;23.11;100.00
43838;BME280;29493;46.516;6.638;2022-07-04T09:01:07;96146.09;;;23.13;100.00
43838;BME280;29493;46.516;6.638;2022-07-04T09:03:34;96137.09;;;23.22;100.00
43838;BME280;29493;46.516;6.638;2022-07-04T09:06:00;96129.00;;;23.26;100.00
43838;BME280;29493;46.516;6.638;2022-07-04T09:08:26;96127.50;;;23.33;100.00
43838;BME280;29493;46.516;6.638;2022-07-04T09:10:53;96130.44;;;23.42;100.00
43838;BME280;29493;46.516;6.638;2022-07-04T09:13:19;96132.66;;;23.51;100.00
43838;BME280;29493;46.516;6.638;2022-07-04T09:15:48;96127.97;;;23.62;100.00
43838;BME280;29493;46.516;6.638;2022-07-04T09:18:30;96130.94;;;23.64;100.00
43838;BME280;29493;46.516;6.638;2022-07-04T09:21:01;96138.25;;;23.67;100.00
43838;BME280;29493;46.516;6.638;2022-07-04T09:23:29;96140.66;;;23.70;100.00
43838;BME280;29493;46.516;6.638;2022-07-04T09:28:37;96154.47;;;23.83;100.00
43838;BME280;29493;46.516;6.638;2022-07-04T09:31:16;96149.41;;;23.82;100.00
43838;BME280;29493;46.516;6.638;2022-07-04T09:33:49;96145.09;;;23.81;100.00
43838;BME280;29493;46.516;6.638;2022-07-04T09:36:17;96157.84;;;23.82;100.00
43838;BME280;29493;46.516;6.638;2022-07-04T09:38:44;96168.13;;;23.95;100.00
43838;BME280;29493;46.516;6.638;2022-07-04T09:41:09;96166.56;;;24.01;100.00
43838;BME280;29493;46.516;6.638;2022-07-04T09:44:01;96166.19;;;24.05;100.00
43838;BME280;29493;46.516;6.638;2022-07-04T09:46:28;96162.94;;;24.16;100.00
43838;BME280;29493;46.516;6.638;2022-07-04T09:48:54;96165.44;;;24.04;100.00
43838;BME280;29493;46.516;6.638;2022-07-04T09:51:40;96153.56;;;24.13;100.00
43838;BME280;29493;46.516;6.638;2022-07-04T09:54:29;96148.78;;;24.31;100.00
43838;BME280;29493;46.516;6.638;2022-07-04T09:56:59;96131.19;;;24.48;100.00
43838;BME280;29493;46.516;6.638;2022-07-04T09:59:26;96132.84;;;24.51;100.00
43838;BME280;29493;46.516;6.638;2022-07-04T10:02:09;96135.59;;;24.59;100.00
43838;BME280;29493;46.516;6.638;2022-07-04T10:04:42;96137.03;;;24.67;100.00
43838;BME280;29493;46.516;6.638;2022-07-04T10:07:08;96145.25;;;24.73;100.00
43838;BME280;29493;46.516;6.638;2022-07-04T10:09:34;96151.56;;;24.81;100.00
43838;BME280;29493;46.516;6.638;2022-07-04T10:12:00;96145.59;;;24.94;100.00
43838;BME280;29493;46.516;6.638;2022-07-04T10:14:27;96156.03;;;25.09;100.00
43838;BME280;29493;46.516;6.638;2022-07-04T10:16:52;96157.53;;;25.27;100.00
43838;BME280;29493;46.516;6.638;2022-07-04T10:19:19;96154.38;;;25.40;100.00
43838;BME280;29493;46.516;6.638;2022-07-04T10:21:46;96154.59;;;25.52;100.00
43838;BME280;29493;46.516;6.638;2022-07-04T10:24:11;96157.16;;;25.58;99.80
43838;BME280;29493;46.516;6.638;2022-07-04T10:26:38;96163.81;;;25.70;99.83
43838;BME280;29493;46.516;6.638;2022-07-04T10:29:03;96162.22;;;25.76;95.32
43838;BME280;29493;46.516;6.638;2022-07-04T10:31:30;96159.72;;;25.81;92.00
43838;BME280;29493;46.516;6.638;2022-07-04T10:33:58;96149.03;;;25.79;91.63
43838;BME280;29493;46.516;6.638;2022-07-04T10:36:25;96157.75;;;25.73;89.60
43838;BME280;29493;46.516;6.638;2022-07-04T10:38:58;96165.69;;;25.85;87.39
43838;BME280;29493;46.516;6.638;2022-07-04T10:41:26;96168.09;;;25.88;85.71
43838;BME280;29493;46.516;6.638;2022-07-04T10:44:05;96164.25;;;25.93;87.69
43838;BME280;29493;46.516;6.638;2022-07-04T10:46:42;96160.38;;;25.89;86.81
43838;BME280;29493;46.516;6.638;2022-07-04T10:54:30;96159.56;;;25.78;84.44
43838;BME280;29493;46.516;6.638;2022-07-04T10:57:16;96165.38;;;25.81;91.25
43838;BME280;29493;46.516;6.638;2022-07-04T10:59:45;96157.00;;;25.73;87.16
43838;BME280;29493;46.516;6.638;2022-07-04T11:02:31;96160.41;;;25.71;85.97
43838;BME280;29493;46.516;6.638;2022-07-04T11:10:19;96160.25;;;26.14;81.58
43838;BME280;29493;46.516;6.638;2022-07-04T11:18:12;96153.97;;;25.88;82.38
43838;BME280;29493;46.516;6.638;2022-07-04T11:20:45;96158.97;;;25.80;81.95
43838;BME280;29493;46.516;6.638;2022-07-04T11:23:16;96150.88;;;25.67;83.69
43838;BME280;29493;46.516;6.638;2022-07-04T11:25:47;96136.34;;;25.53;86.97
43838;BME280;29493;46.516;6.638;2022-07-04T11:28:22;96135.06;;;25.37;86.35
43838;BME280;29493;46.516;6.638;2022-07-04T11:30:52;96131.91;;;25.33;89.00
43838;BME280;29493;46.516;6.638;2022-07-04T11:33:21;96130.00;;;25.18;95.98
43838;BME280;29493;46.516;6.638;2022-07-04T11:36:10;96124.63;;;25.12;94.51
43838;BME280;29493;46.516;6.638;2022-07-04T11:41:17;96132.69;;;24.91;98.85
43838;BME280;29493;46.516;6.638;2022-07-04T11:44:04;96127.75;;;24.74;98.12
43838;BME280;29493;46.516;6.638;2022-07-04T11:46:48;96120.22;;;24.60;100.00
43838;BME280;29493;46.516;6.638;2022-07-04T11:49:14;96106.94;;;24.52;100.00
43838;BME280;29493;46.516;6.638;2022-07-04T11:51:44;96110.91;;;24.49;100.00
43838;BME280;29493;46.516;6.638;2022-07-04T11:54:12;96103.63;;;24.46;100.00
43838;BME280;29493;46.516;6.638;2022-07-04T11:56:38;96093.28;;;24.49;100.00
43838;BME280;29493;46.516;6.638;2022-07-04T11:59:11;96097.16;;;24.54;100.00
43838;BME280;29493;46.516;6.638;2022-07-04T12:01:41;96096.69;;;24.65;100.00
43838;BME280;29493;46.516;6.638;2022-07-04T12:06:40;96091.00;;;24.90;100.00
43838;BME280;29493;46.516;6.638;2022-07-04T12:09:06;96100.66;;;25.04;100.00
43838;BME280;29493;46.516;6.638;2022-07-04T12:11:57;96096.25;;;25.28;97.21
43838;BME280;29493;46.516;6.638;2022-07-04T12:14:25;96094.59;;;25.42;89.34
43838;BME280;29493;46.516;6.638;2022-07-04T12:17:17;96085.91;;;25.57;90.83
43838;BME280;29493;46.516;6.638;2022-07-04T12:19:57;96084.41;;;25.73;90.81
43838;BME280;29493;46.516;6.638;2022-07-04T12:22:29;96077.97;;;25.90;88.36
43838;BME280;29493;46.516;6.638;2022-07-04T12:24:56;96070.28;;;26.00;83.23
43838;BME280;29493;46.516;6.638;2022-07-04T12:27:26;96073.75;;;26.08;79.50
43838;BME280;29493;46.516;6.638;2022-07-04T12:29:53;96056.88;;;26.18;80.99
43838;BME280;29493;46.516;6.638;2022-07-04T12:32:20;96058.06;;;26.25;75.96
43838;BME280;29493;46.516;6.638;2022-07-04T12:34:46;96047.13;;;26.38;77.56
43838;BME280;29493;46.516;6.638;2022-07-04T12:37:14;96059.81;;;26.57;76.36
43838;BME280;29493;46.516;6.638;2022-07-04T12:39:41;96057.59;;;26.75;75.93
43838;BME280;29493;46.516;6.638;2022-07-04T12:42:18;96060.59;;;26.96;78.00
43838;BME280;29493;46.516;6.638;2022-07-04T12:44:45;96051.88;;;27.11;74.72
43838;BME280;29493;46.516;6.638;2022-07-04T12:47:15;96051.28;;;27.22;75.57
43838;BME280;29493;46.516;6.638;2022-07-04T12:49:45;96055.56;;;27.33;73.60
43838;BME280;29493;46.516;6.638;2022-07-04T12:52:16;96053.16;;;27.49;74.70
43838;BME280;29493;46.516;6.638;2022-07-04T12:54:42;96046.75;;;27.67;72.34
43838;BME280;29493;46.516;6.638;2022-07-04T12:57:13;96051.75;;;27.88;68.48
43838;BME280;29493;46.516;6.638;2022-07-04T12:59:41;96052.16;;;27.94;66.08
43838;BME280;29493;46.516;6.638;2022-07-04T13:02:08;96044.22;;;28.12;67.43
43838;BME280;29493;46.516;6.638;2022-07-04T13:04:35;96046.84;;;28.29;63.64
43838;BME280;29493;46.516;6.638;2022-07-04T13:07:21;96044.50;;;28.47;60.71
43838;BME280;29493;46.516;6.638;2022-07-04T13:09:46;96046.69;;;28.58;61.14
43838;BME280;29493;46.516;6.638;2022-07-04T13:12:13;96036.38;;;28.63;62.52
43838;BME280;29493;46.516;6.638;2022-07-04T13:14:52;96037.50;;;28.70;57.63
43838;BME280;29493;46.516;6.638;2022-07-04T13:17:19;96041.16;;;28.82;59.35
43838;BME280;29493;46.516;6.638;2022-07-04T13:19:48;96033.13;;;29.00;59.27
43838;BME280;29493;46.516;6.638;2022-07-04T13:22:14;96028.66;;;29.18;58.92